sensor_id;sensor_type;location;lat;lon;timestamp;pressure;altitude;pressure_sealevel;temperature;humidity
17230;BME280;8731;50.364;8.958;2023-12-29T00:02:03;99908.31;;;9.48;100.00
17230;BME280;8731;50.364;8.958;2023-12-29T00:06:25;99888.41;;;9.52;100.00
17230;BME280;8731;50.364;8.958;2023-12-29T00:10:49;99885.00;;;9.43;100.00
17230;BME280;8731;50.364;8.958;2023-12-29T00:15:12;99882.47;;;9.43;100.00
17230;BME280;8731;50.364;8.958;2023-12-29T00:19:38;99873.94;;;9.43;100.00
17230;BME280;8731;50.364;8.958;2023-12-29T00:24:00;99876.69;;;9.36;100.00
17230;BME280;8731;50.364;8.958;2023-12-29T00:28:24;99864.13;;;9.37;100.00
17230;BME280;8731;50.364;8.958;2023-12-29T00:32:47;99878.19;;;9.34;100.00
17230;BME280;8731;50.364;8.958;2023-12-29T00:37:11;99870.72;;;9.35;100.00
17230;BME280;8731;50.364;8.958;2023-12-29T00:41:33;99867.06;;;9.42;100.00
17230;BME280;8731;50.364;8.958;2023-12-29T00:45:57;99863.03;;;9.44;100.00
17230;BME280;8731;50.364;8.958;2023-12-29T00:50:19;99851.66;;;9.49;100.00
17230;BME280;8731;50.364;8.958;2023-12-29T00:54:42;99847.34;;;9.48;100.00
17230;BME280;8731;50.364;8.958;2023-12-29T00:59:04;99835.97;;;9.44;100.00
17230;BME280;8731;50.364;8.958;2023-12-29T01:03:28;99827.91;;;9.48;100.00
17230;BME280;8731;50.364;8.958;2023-12-29T01:07:51;99830.31;;;9.47;100.00
17230;BME280;8731;50.364;8.958;2023-12-29T01:12:13;99824.91;;;9.44;100.00
17230;BME280;8731;50.364;8.958;2023-12-29T01:16:36;99831.97;;;9.38;100.00
17230;BME280;8731;50.364;8.958;2023-12-29T01:21:01;99831.44;;;9.32;100.00
17230;BME280;8731;50.364;8.958;2023-12-29T01:25:24;99828.63;;;9.29;100.00
17230;BME280;8731;50.364;8.958;2023-12-29T01:29:46;99828.94;;;9.23;100.00
17230;BME280;8731;50.364;8.958;2023-12-29T01:34:09;99836.03;;;9.36;100.00
17230;BME280;8731;50.364;8.958;2023-12-29T01:38:32;99828.47;;;9.27;100.00
17230;BME280;8731;50.364;8.958;2023-12-29T01:42:55;99839.06;;;9.32;100.00
17230;BME280;8731;50.364;8.958;2023-12-29T01:47:18;99831.50;;;9.23;100.00
17230;BME280;8731;50.364;8.958;2023-12-29T01:51:42;99834.16;;;9.25;100.00
17230;BME280;8731;50.364;8.958;2023-12-29T01:56:08;99837.75;;;9.27;100.00
17230;BME280;8731;50.364;8.958;2023-12-29T02:00:30;99839.19;;;9.33;100.00
17230;BME280;8731;50.364;8.958;2023-12-29T02:04:54;99823.81;;;9.32;100.00
17230;BME280;8731;50.364;8.958;2023-12-29T02:09:18;99817.06;;;9.32;100.00
17230;BME280;8731;50.364;8.958;2023-12-29T02:13:42;99825.59;;;9.33;100.00
17230;BME280;8731;50.364;8.958;2023-12-29T02:18:06;99831.22;;;9.39;100.00
17230;BME280;8731;50.364;8.958;2023-12-29T02:22:32;99819.63;;;9.32;100.00
17230;BME280;8731;50.364;8.958;2023-12-29T02:27:00;99819.47;;;9.31;100.00
17230;BME280;8731;50.364;8.958;2023-12-29T02:31:30;99805.88;;;9.30;100.00
17230;BME280;8731;50.364;8.958;2023-12-29T02:35:59;99805.88;;;9.30;100.00
17230;BME280;8731;50.364;8.958;2023-12-29T02:40:21;99799.97;;;9.40;100.00
17230;BME280;8731;50.364;8.958;2023-12-29T02:44:46;99810.00;;;9.38;100.00
17230;BME280;8731;50.364;8.958;2023-12-29T02:49:08;99808.97;;;9.36;100.00
17230;BME280;8731;50.364;8.958;2023-12-29T02:53:33;99803.91;;;9.36;99.29
17230;BME280;8731;50.364;8.958;2023-12-29T02:57:55;99806.72;;;9.39;99.64
17230;BME280;8731;50.364;8.958;2023-12-29T03:02:19;99817.78;;;9.40;99.62
17230;BME280;8731;50.364;8.958;2023-12-29T03:06:43;99813.16;;;9.36;98.39
17230;BME280;8731;50.364;8.958;2023-12-29T03:11:05;99806.56;;;9.38;97.49
17230;BME280;8731;50.364;8.958;2023-12-29T03:15:28;99802.78;;;9.43;97.65
17230;BME280;8731;50.364;8.958;2023-12-29T03:19:52;99800.59;;;9.37;96.80
17230;BME280;8731;50.364;8.958;2023-12-29T03:24:15;99787.63;;;9.34;96.10
17230;BME280;8731;50.364;8.958;2023-12-29T03:28:38;99787.28;;;9.40;95.97
17230;BME280;8731;50.364;8.958;2023-12-29T03:33:00;99776.84;;;9.37;95.76
17230;BME280;8731;50.364;8.958;2023-12-29T03:37:24;99769.97;;;9.36;96.38
17230;BME280;8731;50.364;8.958;2023-12-29T03:41:47;99763.47;;;9.29;96.44
17230;BME280;8731;50.364;8.958;2023-12-29T03:46:16;99741.34;;;9.28;96.77
17230;BME280;8731;50.364;8.958;2023-12-29T03:50:39;99740.50;;;9.19;97.41
17230;BME280;8731;50.364;8.958;2023-12-29T03:55:04;99734.66;;;9.20;98.12
17230;BME280;8731;50.364;8.958;2023-12-29T03:59:27;99737.22;;;9.20;98.39
17230;BME280;8731;50.364;8.958;2023-12-29T04:03:49;99739.59;;;9.18;97.79
17230;BME280;8731;50.364;8.958;2023-12-29T04:08:13;99743.78;;;9.18;98.31
17230;BME280;8731;50.364;8.958;2023-12-29T04:12:38;99747.44;;;9.11;98.17
17230;BME280;8731;50.364;8.958;2023-12-29T04:17:00;99759.25;;;9.11;98.77
17230;BME280;8731;50.364;8.958;2023-12-29T04:21:24;99752.03;;;9.15;98.55
17230;BME280;8731;50.364;8.958;2023-12-29T04:25:49;99743.78;;;9.18;98.10
17230;BME280;8731;50.364;8.958;2023-12-29T04:30:14;99756.50;;;9.18;98.15
17230;BME280;8731;50.364;8.958;2023-12-29T04:34:37;99757.25;;;9.17;97.77
17230;BME280;8731;50.364;8.958;2023-12-29T04:38:59;99750.94;;;9.22;97.29
17230;BME280;8731;50.364;8.958;2023-12-29T04:43:23;99740.06;;;9.23;96.10
17230;BME280;8731;50.364;8.958;2023-12-29T04:47:50;99731.81;;;9.26;96.40
17230;BME280;8731;50.364;8.958;2023-12-29T04:52:13;99734.03;;;9.22;96.56
17230;BME280;8731;50.364;8.958;2023-12-29T04:56:40;99732.34;;;9.32;96.97
17230;BME280;8731;50.364;8.958;2023-12-29T05:01:03;99715.19;;;9.29;96.72
17230;BME280;8731;50.364;8.958;2023-12-29T05:05:27;99726.44;;;9.22;96.48
17230;BME280;8731;50.364;8.958;2023-12-29T05:09:52;99715.25;;;9.20;96.14
17230;BME280;8731;50.364;8.958;2023-12-29T05:14:16;99717.19;;;9.23;96.83
17230;BME280;8731;50.364;8.958;2023-12-29T05:18:40;99726.44;;;9.22;96.92
17230;BME280;8731;50.364;8.958;2023-12-29T05:23:06;99723.00;;;9.22;97.12
17230;BME280;8731;50.364;8.958;2023-12-29T05:27:30;99723.75;;;9.21;97.17
17230;BME280;8731;50.364;8.958;2023-12-29T05:31:53;99725.53;;;9.22;97.57
17230;BME280;8731;50.364;8.958;2023-12-29T05:36:17;99724.81;;;9.23;97.57
17230;BME280;8731;50.364;8.958;2023-12-29T05:40:44;99734.50;;;9.27;97.80
17230;BME280;8731;50.364;8.958;2023-12-29T05:45:10;99728.78;;;9.30;97.63
17230;BME280;8731;50.364;8.958;2023-12-29T05:49:33;99740.72;;;9.31;97.07
17230;BME280;8731;50.364;8.958;2023-12-29T05:54:00;99720.28;;;9.29;96.54
17230;BME280;8731;50.364;8.958;2023-12-29T05:58:25;99722.47;;;9.35;96.03
17230;BME280;8731;50.364;8.958;2023-12-29T06:02:50;99731.13;;;9.37;96.26
17230;BME280;8731;50.364;8.958;2023-12-29T06:07:14;99721.72;;;9.36;94.73
17230;BME280;8731;50.364;8.958;2023-12-29T06:11:37;99719.03;;;9.34;94.55
17230;BME280;8731;50.364;8.958;2023-12-29T06:16:05;99723.75;;;9.40;94.35
17230;BME280;8731;50.364;8.958;2023-12-29T06:20:29;99737.63;;;9.43;93.94
17230;BME280;8731;50.364;8.958;2023-12-29T06:24:53;99743.59;;;9.44;94.01
17230;BME280;8731;50.364;8.958;2023-12-29T06:29:18;99760.34;;;9.42;94.14
17230;BME280;8731;50.364;8.958;2023-12-29T06:33:42;99769.00;;;9.44;93.62
17230;BME280;8731;50.364;8.958;2023-12-29T06:38:10;99768.56;;;9.48;93.34
17230;BME280;8731;50.364;8.958;2023-12-29T06:42:36;99768.69;;;9.49;93.67
17230;BME280;8731;50.364;8.958;2023-12-29T06:47:00;99753.72;;;9.52;93.96
17230;BME280;8731;50.364;8.958;2023-12-29T06:51:26;99742.78;;;9.53;93.79
17230;BME280;8731;50.364;8.958;2023-12-29T06:55:53;99725.63;;;9.51;93.60
17230;BME280;8731;50.364;8.958;2023-12-29T07:00:16;99718.75;;;9.50;93.78
17230;BME280;8731;50.364;8.958;2023-12-29T07:04:41;99726.66;;;9.53;93.91
17230;BME280;8731;50.364;8.958;2023-12-29T07:09:05;99728.34;;;9.44;94.91
17230;BME280;8731;50.364;8.958;2023-12-29T07:13:28;99737.94;;;9.46;95.33
17230;BME280;8731;50.364;8.958;2023-12-29T07:17:50;99742.16;;;9.37;95.85
17230;BME280;8731;50.364;8.958;2023-12-29T07:22:13;99746.59;;;9.48;95.36
17230;BME280;8731;50.364;8.958;2023-12-29T07:26:37;99744.50;;;9.44;96.30
17230;BME280;8731;50.364;8.958;2023-12-29T07:30:59;99749.25;;;9.50;95.75
17230;BME280;8731;50.364;8.958;2023-12-29T07:35:22;99741.19;;;9.45;96.18
17230;BME280;8731;50.364;8.958;2023-12-29T07:39:45;99743.28;;;9.49;96.07
17230;BME280;8731;50.364;8.958;2023-12-29T07:44:11;99752.56;;;9.49;96.60
17230;BME280;8731;50.364;8.958;2023-12-29T07:48:33;99753.63;;;9.61;96.18
17230;BME280;8731;50.364;8.958;2023-12-29T07:52:55;99750.47;;;9.64;96.88
17230;BME280;8731;50.364;8.958;2023-12-29T07:57:18;99755.69;;;9.65;97.01
17230;BME280;8731;50.364;8.958;2023-12-29T08:01:42;99766.13;;;9.68;97.54
17230;BME280;8731;50.364;8.958;2023-12-29T08:06:05;99768.22;;;9.72;97.66
17230;BME280;8731;50.364;8.958;2023-12-29T08:10:28;99771.28;;;9.78;97.18
17230;BME280;8731;50.364;8.958;2023-12-29T08:14:52;99772.03;;;9.77;98.21
17230;BME280;8731;50.364;8.958;2023-12-29T08:19:17;99767.09;;;9.79;98.51
17230;BME280;8731;50.364;8.958;2023-12-29T08:23:40;99770.78;;;9.82;98.72
17230;BME280;8731;50.364;8.958;2023-12-29T08:28:03;99765.50;;;9.90;98.36
17230;BME280;8731;50.364;8.958;2023-12-29T08:32:25;99754.84;;;9.94;99.04
17230;BME280;8731;50.364;8.958;2023-12-29T08:36:49;99765.28;;;9.97;99.03
17230;BME280;8731;50.364;8.958;2023-12-29T08:41:13;99757.16;;;10.01;98.83
17230;BME280;8731;50.364;8.958;2023-12-29T08:45:36;99751.84;;;10.08;98.71
17230;BME280;8731;50.364;8.958;2023-12-29T08:49:59;99759.13;;;10.13;98.04
17230;BME280;8731;50.364;8.958;2023-12-29T08:54:23;99752.34;;;10.23;97.43
17230;BME280;8731;50.364;8.958;2023-12-29T08:58:47;99752.09;;;10.30;98.00
17230;BME280;8731;50.364;8.958;2023-12-29T09:03:16;99760.25;;;10.36;97.25
17230;BME280;8731;50.364;8.958;2023-12-29T09:07:39;99752.50;;;10.34;96.36
17230;BME280;8731;50.364;8.958;2023-12-29T09:12:03;99745.16;;;10.48;97.10
17230;BME280;8731;50.364;8.958;2023-12-29T09:16:27;99737.78;;;10.51;96.34
17230;BME280;8731;50.364;8.958;2023-12-29T09:20:50;99745.94;;;10.47;95.42
17230;BME280;8731;50.364;8.958;2023-12-29T09:25:12;99759.16;;;10.53;95.30
17230;BME280;8731;50.364;8.958;2023-12-29T09:29:37;99759.56;;;10.57;94.40
17230;BME280;8731;50.364;8.958;2023-12-29T09:34:00;99751.28;;;10.60;94.17
17230;BME280;8731;50.364;8.958;2023-12-29T09:38:22;99753.25;;;10.72;94.28
17230;BME280;8731;50.364;8.958;2023-12-29T09:42:45;99755.78;;;10.72;93.26
17230;BME280;8731;50.364;8.958;2023-12-29T09:47:13;99751.59;;;10.73;91.62
17230;BME280;8731;50.364;8.958;2023-12-29T09:51:40;99757.19;;;10.79;91.56
17230;BME280;8731;50.364;8.958;2023-12-29T09:56:07;99767.13;;;10.86;91.18
17230;BME280;8731;50.364;8.958;2023-12-29T10:00:31;99759.78;;;10.89;90.95
17230;BME280;8731;50.364;8.958;2023-12-29T10:05:03;99752.59;;;10.85;90.24
17230;BME280;8731;50.364;8.958;2023-12-29T10:09:30;99768.44;;;10.91;89.65
17230;BME280;8731;50.364;8.958;2023-12-29T10:13:58;99742.16;;;10.82;90.34
17230;BME280;8731;50.364;8.958;2023-12-29T10:18:32;99748.06;;;10.91;89.82
17230;BME280;8731;50.364;8.958;2023-12-29T10:23:11;99756.03;;;10.86;90.52
17230;BME280;8731;50.364;8.958;2023-12-29T10:27:37;99761.00;;;10.84;90.00
17230;BME280;8731;50.364;8.958;2023-12-29T10:31:59;99757.94;;;10.88;90.52
17230;BME280;8731;50.364;8.958;2023-12-29T10:36:22;99756.16;;;10.87;90.02
17230;BME280;8731;50.364;8.958;2023-12-29T10:40:46;99761.69;;;10.92;90.96
17230;BME280;8731;50.364;8.958;2023-12-29T10:45:09;99755.56;;;10.90;90.84
17230;BME280;8731;50.364;8.958;2023-12-29T10:49:32;99747.41;;;10.94;90.83
17230;BME280;8731;50.364;8.958;2023-12-29T10:53:55;99747.41;;;10.94;91.63
17230;BME280;8731;50.364;8.958;2023-12-29T10:58:20;99742.44;;;10.95;92.49
17230;BME280;8731;50.364;8.958;2023-12-29T11:02:42;99747.03;;;10.89;92.26
17230;BME280;8731;50.364;8.958;2023-12-29T11:07:15;99739.78;;;10.94;92.32
17230;BME280;8731;50.364;8.958;2023-12-29T11:11:52;99739.41;;;10.89;93.24
17230;BME280;8731;50.364;8.958;2023-12-29T11:16:19;99748.31;;;10.94;93.37
17230;BME280;8731;50.364;8.958;2023-12-29T11:20:45;99743.59;;;10.99;93.54
17230;BME280;8731;50.364;8.958;2023-12-29T11:25:09;99746.28;;;10.90;94.65
17230;BME280;8731;50.364;8.958;2023-12-29T11:29:34;99743.84;;;10.92;94.59
17230;BME280;8731;50.364;8.958;2023-12-29T11:34:05;99728.19;;;10.97;94.87
17230;BME280;8731;50.364;8.958;2023-12-29T11:38:44;99734.16;;;10.98;94.52
17230;BME280;8731;50.364;8.958;2023-12-29T11:43:20;99714.69;;;10.98;95.01
17230;BME280;8731;50.364;8.958;2023-12-29T11:47:47;99732.13;;;11.04;94.22
17230;BME280;8731;50.364;8.958;2023-12-29T11:52:32;99712.66;;;11.15;93.91
17230;BME280;8731;50.364;8.958;2023-12-29T11:56:55;99703.47;;;11.06;93.59
17230;BME280;8731;50.364;8.958;2023-12-29T12:01:36;99694.53;;;11.12;92.73
17230;BME280;8731;50.364;8.958;2023-12-29T12:05:59;99696.84;;;11.19;92.50
17230;BME280;8731;50.364;8.958;2023-12-29T12:10:31;99703.19;;;11.24;92.27
17230;BME280;8731;50.364;8.958;2023-12-29T12:14:58;99700.91;;;11.27;91.52
17230;BME280;8731;50.364;8.958;2023-12-29T12:19:23;99705.47;;;11.31;91.54
17230;BME280;8731;50.364;8.958;2023-12-29T12:23:47;99701.28;;;11.31;90.58
17230;BME280;8731;50.364;8.958;2023-12-29T12:28:13;99698.06;;;11.44;90.84
17230;BME280;8731;50.364;8.958;2023-12-29T12:32:36;99701.41;;;11.43;90.51
17230;BME280;8731;50.364;8.958;2023-12-29T12:36:59;99720.00;;;11.42;90.33
17230;BME280;8731;50.364;8.958;2023-12-29T12:41:25;99705.47;;;11.41;89.86
17230;BME280;8731;50.364;8.958;2023-12-29T12:45:54;99700.91;;;11.37;89.85
17230;BME280;8731;50.364;8.958;2023-12-29T12:50:22;99692.72;;;11.41;90.09
17230;BME280;8731;50.364;8.958;2023-12-29T12:54:46;99674.66;;;11.38;89.75
17230;BME280;8731;50.364;8.958;2023-12-29T12:59:10;99688.78;;;11.45;89.59
17230;BME280;8731;50.364;8.958;2023-12-29T13:03:40;99676.56;;;11.41;89.10
17230;BME280;8731;50.364;8.958;2023-12-29T13:08:04;99681.38;;;11.48;89.51
17230;BME280;8731;50.364;8.958;2023-12-29T13:12:28;99682.53;;;11.41;88.86
17230;BME280;8731;50.364;8.958;2023-12-29T13:16:51;99677.56;;;11.43;88.45
17230;BME280;8731;50.364;8.958;2023-12-29T13:21:16;99667.72;;;11.47;89.11
17230;BME280;8731;50.364;8.958;2023-12-29T13:25:40;99669.44;;;11.36;88.42
17230;BME280;8731;50.364;8.958;2023-12-29T13:30:09;99658.81;;;11.42;89.17
17230;BME280;8731;50.364;8.958;2023-12-29T13:34:39;99659.72;;;11.43;89.24
17230;BME280;8731;50.364;8.958;2023-12-29T13:39:20;99657.94;;;11.42;88.98
17230;BME280;8731;50.364;8.958;2023-12-29T13:43:47;99641.75;;;11.41;89.27
17230;BME280;8731;50.364;8.958;2023-12-29T13:48:11;99646.09;;;11.42;89.84
17230;BME280;8731;50.364;8.958;2023-12-29T13:52:37;99648.00;;;11.34;90.33
17230;BME280;8731;50.364;8.958;2023-12-29T13:57:04;99655.03;;;11.37;90.10
17230;BME280;8731;50.364;8.958;2023-12-29T14:01:26;99657.94;;;11.42;90.12
17230;BME280;8731;50.364;8.958;2023-12-29T14:05:59;99657.41;;;11.35;89.69
17230;BME280;8731;50.364;8.958;2023-12-29T14:10:29;99665.72;;;11.43;89.73
17230;BME280;8731;50.364;8.958;2023-12-29T14:14:53;99658.34;;;11.36;90.01
17230;BME280;8731;50.364;8.958;2023-12-29T14:19:16;99647.50;;;11.38;90.44
17230;BME280;8731;50.364;8.958;2023-12-29T14:23:38;99652.19;;;11.44;90.56
17230;BME280;8731;50.364;8.958;2023-12-29T14:28:01;99644.44;;;11.43;90.97
17230;BME280;8731;50.364;8.958;2023-12-29T14:32:25;99654.25;;;11.38;89.78
17230;BME280;8731;50.364;8.958;2023-12-29T14:36:52;99653.84;;;11.33;90.52
17230;BME280;8731;50.364;8.958;2023-12-29T14:41:20;99659.22;;;11.36;90.48
17230;BME280;8731;50.364;8.958;2023-12-29T14:45:43;99658.34;;;11.36;91.07
17230;BME280;8731;50.364;8.958;2023-12-29T14:50:08;99657.28;;;11.34;90.88
17230;BME280;8731;50.364;8.958;2023-12-29T14:54:31;99668.25;;;11.33;89.72
17230;BME280;8731;50.364;8.958;2023-12-29T14:58:54;99661.63;;;11.35;90.54
17230;BME280;8731;50.364;8.958;2023-12-29T15:03:19;99663.69;;;11.39;90.39
17230;BME280;8731;50.364;8.958;2023-12-29T15:07:45;99656.81;;;11.38;90.50
17230;BME280;8731;50.364;8.958;2023-12-29T15:12:09;99660.38;;;11.30;90.38
17230;BME280;8731;50.364;8.958;2023-12-29T15:16:32;99650.28;;;11.31;90.27
17230;BME280;8731;50.364;8.958;2023-12-29T15:20:55;99644.72;;;11.25;90.46
17230;BME280;8731;50.364;8.958;2023-12-29T15:25:23;99639.63;;;11.25;91.31
17230;BME280;8731;50.364;8.958;2023-12-29T15:29:47;99641.28;;;11.25;91.92
17230;BME280;8731;50.364;8.958;2023-12-29T15:34:09;99632.13;;;11.17;92.68
17230;BME280;8731;50.364;8.958;2023-12-29T15:38:32;99631.13;;;11.15;92.81
17230;BME280;8731;50.364;8.958;2023-12-29T15:42:57;99631.88;;;11.14;93.17
17230;BME280;8731;50.364;8.958;2023-12-29T15:47:20;99625.25;;;11.16;93.38
17230;BME280;8731;50.364;8.958;2023-12-29T15:51:43;99622.31;;;11.11;92.62
17230;BME280;8731;50.364;8.958;2023-12-29T15:56:06;99621.28;;;11.09;92.45
17230;BME280;8731;50.364;8.958;2023-12-29T16:00:30;99613.16;;;11.13;92.21
17230;BME280;8731;50.364;8.958;2023-12-29T16:04:54;99615.72;;;11.13;92.31
17230;BME280;8731;50.364;8.958;2023-12-29T16:09:17;99619.03;;;11.02;92.38
17230;BME280;8731;50.364;8.958;2023-12-29T16:13:40;99609.06;;;11.05;92.38
17230;BME280;8731;50.364;8.958;2023-12-29T16:18:05;99606.41;;;11.03;93.54
17230;BME280;8731;50.364;8.958;2023-12-29T16:22:27;99602.72;;;11.00;93.37
17230;BME280;8731;50.364;8.958;2023-12-29T16:26:50;99607.56;;;10.97;94.24
17230;BME280;8731;50.364;8.958;2023-12-29T16:31:12;99611.00;;;10.97;94.38
17230;BME280;8731;50.364;8.958;2023-12-29T16:35:36;99624.28;;;10.93;94.39
17230;BME280;8731;50.364;8.958;2023-12-29T16:39:58;99620.44;;;10.98;95.13
17230;BME280;8731;50.364;8.958;2023-12-29T16:44:23;99631.63;;;11.00;95.15
17230;BME280;8731;50.364;8.958;2023-12-29T16:48:45;99634.97;;;10.89;96.15
17230;BME280;8731;50.364;8.958;2023-12-29T16:53:09;99618.94;;;10.90;96.35
17230;BME280;8731;50.364;8.958;2023-12-29T16:57:32;99637.13;;;10.85;96.77
17230;BME280;8731;50.364;8.958;2023-12-29T17:01:54;99621.06;;;10.86;96.73
17230;BME280;8731;50.364;8.958;2023-12-29T17:06:17;99611.53;;;10.93;97.46
17230;BME280;8731;50.364;8.958;2023-12-29T17:10:41;99613.84;;;10.90;96.60
17230;BME280;8731;50.364;8.958;2023-12-29T17:15:04;99617.66;;;10.75;97.60
17230;BME280;8731;50.364;8.958;2023-12-29T17:19:28;99612.56;;;10.75;97.21
17230;BME280;8731;50.364;8.958;2023-12-29T17:23:50;99614.97;;;10.73;96.49
17230;BME280;8731;50.364;8.958;2023-12-29T17:28:15;99617.25;;;10.81;95.66
17230;BME280;8731;50.364;8.958;2023-12-29T17:32:37;99614.97;;;10.84;95.50
17230;BME280;8731;50.364;8.958;2023-12-29T17:37:02;99620.69;;;10.81;95.57
17230;BME280;8731;50.364;8.958;2023-12-29T17:41:24;99608.72;;;10.80;94.99
17230;BME280;8731;50.364;8.958;2023-12-29T17:45:48;99618.41;;;10.84;95.28
17230;BME280;8731;50.364;8.958;2023-12-29T17:50:11;99618.53;;;10.86;94.56
17230;BME280;8731;50.364;8.958;2023-12-29T17:54:40;99613.31;;;10.84;93.82
17230;BME280;8731;50.364;8.958;2023-12-29T17:59:03;99613.19;;;10.83;93.57
17230;BME280;8731;50.364;8.958;2023-12-29T18:03:28;99611.28;;;10.80;93.96
17230;BME280;8731;50.364;8.958;2023-12-29T18:07:50;99604.91;;;10.75;92.92
17230;BME280;8731;50.364;8.958;2023-12-29T18:12:13;99609.00;;;10.73;92.50
17230;BME280;8731;50.364;8.958;2023-12-29T18:16:35;99611.41;;;10.71;92.75
17230;BME280;8731;50.364;8.958;2023-12-29T18:21:02;99610.78;;;10.74;91.51
17230;BME280;8731;50.364;8.958;2023-12-29T18:25:25;99612.56;;;10.75;92.32
17230;BME280;8731;50.364;8.958;2023-12-29T18:29:48;99631.91;;;10.73;92.41
17230;BME280;8731;50.364;8.958;2023-12-29T18:34:11;99623.38;;;10.72;92.50
17230;BME280;8731;50.364;8.958;2023-12-29T18:38:35;99636.25;;;10.74;92.24
17230;BME280;8731;50.364;8.958;2023-12-29T18:42:57;99630.13;;;10.72;91.83
17230;BME280;8731;50.364;8.958;2023-12-29T18:47:20;99631.16;;;10.74;92.28
17230;BME280;8731;50.364;8.958;2023-12-29T18:51:42;99630.13;;;10.72;92.00
17230;BME280;8731;50.364;8.958;2023-12-29T18:56:09;99625.94;;;10.72;91.93
17230;BME280;8731;50.364;8.958;2023-12-29T19:00:34;99631.66;;;10.70;91.71
17230;BME280;8731;50.364;8.958;2023-12-29T19:04:57;99625.56;;;10.68;91.38
17230;BME280;8731;50.364;8.958;2023-12-29T19:09:21;99636.38;;;10.65;92.21
17230;BME280;8731;50.364;8.958;2023-12-29T19:13:45;99632.44;;;10.69;91.79
17230;BME280;8731;50.364;8.958;2023-12-29T19:18:10;99627.22;;;10.67;92.33
17230;BME280;8731;50.364;8.958;2023-12-29T19:22:33;99632.44;;;10.69;92.07
17230;BME280;8731;50.364;8.958;2023-12-29T19:26:56;99643.50;;;10.69;93.75
17230;BME280;8731;50.364;8.958;2023-12-29T19:31:23;99634.06;;;10.58;94.52
17230;BME280;8731;50.364;8.958;2023-12-29T19:35:45;99637.28;;;10.66;95.13
17230;BME280;8731;50.364;8.958;2023-12-29T19:40:09;99639.66;;;10.54;96.55
17230;BME280;8731;50.364;8.958;2023-12-29T19:44:33;99633.44;;;10.61;96.71
17230;BME280;8731;50.364;8.958;2023-12-29T19:48:57;99628.72;;;10.55;96.86
17230;BME280;8731;50.364;8.958;2023-12-29T19:53:20;99631.28;;;10.55;96.37
17230;BME280;8731;50.364;8.958;2023-12-29T19:57:42;99633.94;;;10.57;95.96
17230;BME280;8731;50.364;8.958;2023-12-29T20:02:07;99639.16;;;10.58;96.33
17230;BME280;8731;50.364;8.958;2023-12-29T20:06:31;99628.84;;;10.47;96.64
17230;BME280;8731;50.364;8.958;2023-12-29T20:10:55;99645.53;;;10.43;97.70
17230;BME280;8731;50.364;8.958;2023-12-29T20:15:18;99643.63;;;10.51;97.57
17230;BME280;8731;50.364;8.958;2023-12-29T20:19:42;99657.06;;;10.39;98.81
17230;BME280;8731;50.364;8.958;2023-12-29T20:24:08;99639.81;;;10.45;98.48
17230;BME280;8731;50.364;8.958;2023-12-29T20:28:32;99635.06;;;10.40;98.40
17230;BME280;8731;50.364;8.958;2023-12-29T20:32:55;99630.09;;;10.31;100.00
17230;BME280;8731;50.364;8.958;2023-12-29T20:37:20;99628.19;;;10.29;100.00
17230;BME280;8731;50.364;8.958;2023-12-29T20:41:44;99625.38;;;10.36;100.00
17230;BME280;8731;50.364;8.958;2023-12-29T20:46:07;99640.28;;;10.31;100.00
17230;BME280;8731;50.364;8.958;2023-12-29T20:50:30;99628.81;;;10.36;100.00
17230;BME280;8731;50.364;8.958;2023-12-29T20:54:53;99625.78;;;10.30;100.00
17230;BME280;8731;50.364;8.958;2023-12-29T20:59:17;99630.34;;;10.24;100.00
17230;BME280;8731;50.364;8.958;2023-12-29T21:03:40;99628.81;;;10.36;100.00
17230;BME280;8731;50.364;8.958;2023-12-29T21:08:03;99632.91;;;10.34;100.00
17230;BME280;8731;50.364;8.958;2023-12-29T21:12:26;99633.78;;;10.25;100.00
17230;BME280;8731;50.364;8.958;2023-12-29T21:16:50;99631.88;;;10.32;100.00
17230;BME280;8731;50.364;8.958;2023-12-29T21:21:13;99633.66;;;10.23;100.00
17230;BME280;8731;50.364;8.958;2023-12-29T21:25:36;99634.00;;;10.18;100.00
17230;BME280;8731;50.364;8.958;2023-12-29T21:29:58;99630.69;;;10.19;100.00
17230;BME280;8731;50.364;8.958;2023-12-29T21:34:23;99642.31;;;10.25;100.00
17230;BME280;8731;50.364;8.958;2023-12-29T21:38:45;99636.97;;;10.22;100.00
17230;BME280;8731;50.364;8.958;2023-12-29T21:43:07;99641.00;;;10.20;100.00
17230;BME280;8731;50.364;8.958;2023-12-29T21:47:30;99632.19;;;10.16;100.00
17230;BME280;8731;50.364;8.958;2023-12-29T21:51:55;99622.72;;;10.24;100.00
17230;BME280;8731;50.364;8.958;2023-12-29T21:56:18;99636.69;;;10.19;100.00
17230;BME280;8731;50.364;8.958;2023-12-29T22:00:40;99638.16;;;10.17;100.00
17230;BME280;8731;50.364;8.958;2023-12-29T22:05:03;99641.28;;;10.23;100.00
17230;BME280;8731;50.364;8.958;2023-12-29T22:09:27;99644.78;;;10.15;100.00
17230;BME280;8731;50.364;8.958;2023-12-29T22:13:51;99652.41;;;10.05;100.00
17230;BME280;8731;50.364;8.958;2023-12-29T22:18:14;99655.56;;;10.02;100.00
17230;BME280;8731;50.364;8.958;2023-12-29T22:22:37;99672.50;;;10.12;100.00
17230;BME280;8731;50.364;8.958;2023-12-29T22:27:01;99684.56;;;10.04;100.00
17230;BME280;8731;50.364;8.958;2023-12-29T22:31:23;99667.25;;;10.00;100.00
17230;BME280;8731;50.364;8.958;2023-12-29T22:35:46;99668.78;;;9.98;100.00
17230;BME280;8731;50.364;8.958;2023-12-29T22:40:10;99677.06;;;9.96;100.00
17230;BME280;8731;50.364;8.958;2023-12-29T22:44:36;99675.41;;;10.06;100.00
17230;BME280;8731;50.364;8.958;2023-12-29T22:49:00;99664.63;;;10.09;100.00
17230;BME280;8731;50.364;8.958;2023-12-29T22:53:23;99659.41;;;10.07;100.00
17230;BME280;8731;50.364;8.958;2023-12-29T22:57:46;99666.13;;;10.07;100.00
17230;BME280;8731;50.364;8.958;2023-12-29T23:02:11;99654.69;;;10.02;100.00
17230;BME280;8731;50.364;8.958;2023-12-29T23:06:33;99666.59;;;9.93;100.00
17230;BME280;8731;50.364;8.958;2023-12-29T23:10:56;99660.47;;;9.91;100.00
17230;BME280;8731;50.364;8.958;2023-12-29T23:15:19;99663.75;;;9.79;100.00
17230;BME280;8731;50.364;8.958;2023-12-29T23:19:42;99660.31;;;9.79;100.00
17230;BME280;8731;50.364;8.958;2023-12-29T23:24:05;99659.03;;;9.74;100.00
17230;BME280;8731;50.364;8.958;2023-12-29T23:28:29;99659.78;;;9.73;100.00
17230;BME280;8731;50.364;8.958;2023-12-29T23:32:51;99669.84;;;9.71;100.00
17230;BME280;8731;50.364;8.958;2023-12-29T23:37:16;99665.78;;;9.73;100.00
17230;BME280;8731;50.364;8.958;2023-12-29T23:41:38;99662.03;;;9.70;100.00